createdAt,value
2018-01-25T00:00:37.888Z,10.18
2018-01-25T00:01:37.546Z,10.17
2018-01-25T00:02:37.829Z,10.25
2018-01-25T00:03:37.933Z,10.26
2018-01-25T00:04:52.535Z,10.18
2018-01-25T00:05:37.927Z,10.17
2018-01-25T00:06:37.645Z,10.15
2018-01-25T00:07:37.909Z,10.17
2018-01-25T00:08:37.944Z,10.12
2018-01-25T00:09:37.696Z,10.04
2018-01-25T00:10:37.960Z,10.04
2018-01-25T00:11:37.982Z,10.01
2018-01-25T00:13:38.036Z,9.93
2018-01-25T00:15:38.075Z,9.96
2018-01-25T00:16:38.092Z,10.01
2018-01-25T00:17:37.835Z,9.94
2018-01-25T00:18:38.132Z,9.94
2018-01-25T00:19:38.148Z,10.07
2018-01-25T00:20:52.836Z,10.05
2018-01-25T00:21:37.681Z,9.99
2018-01-25T00:22:38.196Z,9.99
2018-01-25T00:23:38.276Z,9.94
2018-01-25T00:24:38.333Z,9.93
2018-01-25T00:25:52.938Z,9.96
2018-01-25T00:26:38.286Z,9.94
2018-01-25T00:27:38.047Z,9.9
2018-01-25T00:29:52.843Z,9.94
2018-01-25T00:31:38.378Z,9.97
2018-01-25T00:32:37.880Z,9.97
2018-01-25T00:33:37.900Z,10.01
2018-01-25T00:34:38.512Z,9.94
2018-01-25T00:35:38.508Z,10.01
2018-01-25T00:36:53.134Z,9.94
2018-01-25T00:37:38.478Z,9.93
2018-01-25T00:38:38.502Z,9.81
2018-01-25T00:39:38.518Z,9.89
2018-01-25T00:41:38.297Z,9.93
2018-01-25T00:42:38.580Z,9.87
2018-01-25T00:43:38.597Z,9.89
2018-01-25T00:44:38.621Z,9.84
2018-01-25T00:45:38.632Z,9.83
2018-01-25T00:46:38.404Z,9.75
2018-01-25T00:47:38.658Z,9.72
2018-01-25T00:48:38.686Z,9.78
2018-01-25T00:49:38.731Z,9.72
2018-01-25T00:50:38.734Z,9.78
2018-01-25T00:51:53.416Z,9.86
2018-01-25T00:52:38.780Z,9.81
2018-01-25T00:53:38.774Z,9.79
2018-01-25T00:54:38.574Z,9.71
2018-01-25T00:55:38.836Z,9.87
2018-01-25T00:56:38.858Z,9.66
2018-01-25T00:57:38.870Z,9.79
2018-01-25T00:58:38.627Z,9.86
2018-01-25T00:59:38.905Z,9.81
2018-01-25T01:00:53.585Z,9.97
2018-01-25T01:01:38.940Z,9.91
2018-01-25T01:03:38.977Z,10.04
2018-01-25T01:04:39.012Z,10.17
2018-01-25T01:05:38.766Z,10.18
2018-01-25T01:06:39.040Z,10.23
2018-01-25T01:07:39.059Z,10.17
2018-01-25T01:08:38.830Z,10.32
2018-01-25T01:09:39.082Z,10.33
2018-01-25T01:10:39.127Z,10.4
2018-01-25T01:11:39.116Z,10.36
2018-01-25T01:12:38.897Z,10.36
2018-01-25T01:14:39.173Z,10.34
2018-01-25T01:15:39.205Z,10.33
2018-01-25T01:16:53.887Z,10.36
2018-01-25T01:17:38.997Z,10.45
2018-01-25T01:18:39.265Z,10.47
2018-01-25T01:19:39.285Z,10.47
2018-01-25T01:20:39.062Z,10.56
2018-01-25T01:21:39.324Z,10.44
2018-01-25T01:22:39.344Z,10.52
2018-01-25T01:24:39.386Z,10.52
2018-01-25T01:25:39.412Z,10.51
2018-01-25T01:26:39.164Z,10.45
2018-01-25T01:27:39.171Z,10.44
2018-01-25T01:28:39.194Z,10.34
2018-01-25T01:29:39.465Z,10.33
2018-01-25T01:30:39.236Z,10.33
2018-01-25T01:31:39.292Z,10.34
2018-01-25T01:32:39.528Z,10.42
2018-01-25T01:33:39.538Z,10.41
2018-01-25T01:34:39.329Z,10.4
2018-01-25T01:35:39.352Z,10.48
2018-01-25T01:36:39.608Z,10.36
2018-01-25T01:37:39.620Z,10.47
2018-01-25T01:38:39.664Z,10.51
2018-01-25T01:39:54.330Z,10.51
2018-01-25T01:40:39.412Z,10.51
2018-01-25T01:41:39.448Z,10.56
2018-01-25T01:42:39.696Z,10.63
2018-01-25T01:43:39.742Z,10.6
2018-01-25T01:44:39.761Z,10.67
2018-01-25T01:46:39.808Z,10.6
2018-01-25T01:47:39.805Z,10.42
2018-01-25T01:49:39.846Z,10.6
2018-01-25T01:50:39.874Z,10.59
2018-01-25T01:51:39.883Z,10.6
2018-01-25T01:52:39.934Z,10.63
2018-01-25T01:53:39.922Z,10.6
2018-01-25T01:54:39.703Z,10.64
2018-01-25T01:55:54.385Z,10.59
2018-01-25T01:56:40.004Z,10.59
2018-01-25T01:57:39.763Z,10.48
2018-01-25T01:58:39.772Z,10.44
2018-01-25T01:59:40.043Z,10.56
2018-01-25T02:00:40.067Z,10.53
2018-01-25T02:01:39.830Z,10.44
2018-01-25T02:02:39.853Z,10.53
2018-01-25T02:03:40.125Z,10.6
2018-01-25T02:04:39.892Z,10.56
2018-01-25T02:05:40.159Z,10.52
2018-01-25T02:06:40.185Z,10.61
2018-01-25T02:07:40.292Z,10.6
2018-01-25T02:08:40.222Z,10.56
2018-01-25T02:09:40.322Z,10.61
2018-01-25T02:10:40.250Z,10.6
2018-01-25T02:11:54.947Z,10.59
2018-01-25T02:12:40.302Z,10.48
2018-01-25T02:13:40.075Z,10.59
2018-01-25T02:14:40.329Z,10.52
2018-01-25T02:15:40.340Z,10.53
2018-01-25T02:16:40.359Z,10.48
2018-01-25T02:17:40.137Z,10.52
2018-01-25T02:18:40.417Z,10.47
2018-01-25T02:19:40.444Z,10.48
2018-01-25T02:20:40.548Z,10.53
2018-01-25T02:21:40.064Z,10.51
2018-01-25T02:22:40.231Z,10.53
2018-01-25T02:23:40.497Z,10.53
2018-01-25T02:24:40.538Z,10.48
2018-01-25T02:26:55.327Z,10.56
2018-01-25T02:27:40.328Z,10.45
2018-01-25T02:28:40.333Z,10.55
2018-01-25T02:29:40.638Z,10.59
2018-01-25T02:30:40.389Z,10.61
2018-01-25T02:31:40.411Z,10.47
2018-01-25T02:32:40.694Z,10.52
2018-01-25T02:33:40.699Z,10.51
2018-01-25T02:34:40.463Z,10.47
2018-01-25T02:35:40.489Z,10.48
2018-01-25T02:36:40.503Z,10.38
2018-01-25T02:37:40.537Z,10.3
2018-01-25T02:38:40.542Z,10.23
2018-01-25T02:39:40.581Z,10.27
2018-01-25T02:41:40.591Z,10.25
2018-01-25T02:43:40.898Z,10.26
2018-01-25T02:44:40.651Z,10.15
2018-01-25T02:45:40.929Z,10.17
2018-01-25T02:46:40.934Z,10.05
2018-01-25T02:47:40.970Z,10.15
2018-01-25T02:48:55.652Z,10.15
2018-01-25T02:49:40.753Z,10.15
2018-01-25T02:50:40.766Z,10.18
2018-01-25T02:51:41.034Z,10.25
2018-01-25T02:52:40.562Z,10.15
2018-01-25T02:53:40.833Z,10.2
2018-01-25T02:54:41.092Z,10.29
2018-01-25T02:55:40.867Z,10.26
2018-01-25T02:56:41.156Z,10.27
2018-01-25T02:57:41.151Z,10.25
2018-01-25T02:58:55.593Z,10.18
2018-01-25T02:59:41.175Z,10.29
2018-01-25T03:00:41.209Z,10.34
2018-01-25T03:01:40.721Z,10.34
2018-01-25T03:02:40.988Z,10.36
2018-01-25T03:04:41.306Z,10.32
2018-01-25T03:05:41.063Z,10.33
2018-01-25T03:06:41.339Z,10.38
2018-01-25T03:07:41.089Z,10.32
2018-01-25T03:08:41.115Z,10.32
2018-01-25T03:09:41.396Z,10.4
2018-01-25T03:10:41.412Z,10.4
2018-01-25T03:11:41.421Z,10.32
2018-01-25T03:12:41.178Z,10.32
2018-01-25T03:13:41.449Z,10.25
2018-01-25T03:14:56.151Z,10.34
2018-01-25T03:15:41.255Z,10.27
2018-01-25T03:16:41.277Z,10.29
2018-01-25T03:17:56.203Z,10.26
2018-01-25T03:18:41.553Z,10.12
2018-01-25T03:19:41.579Z,10.22
2018-01-25T03:20:41.330Z,10.14
2018-01-25T03:22:41.370Z,10.2
2018-01-25T03:23:41.644Z,10.08
2018-01-25T03:24:41.438Z,10.17
2018-01-25T03:25:41.482Z,10.09
2018-01-25T03:26:41.436Z,10.02
2018-01-25T03:27:41.493Z,10.05
2018-01-25T03:28:41.741Z,10.14
2018-01-25T03:29:41.775Z,10.17
2018-01-25T03:30:56.446Z,10.08
2018-01-25T03:31:41.786Z,10.07
2018-01-25T03:32:41.840Z,10.02
2018-01-25T03:33:41.829Z,10.12
2018-01-25T03:34:56.528Z,9.99
2018-01-25T03:35:41.614Z,10.11
2018-01-25T03:37:41.927Z,10.18
2018-01-25T03:38:41.943Z,10.14
2018-01-25T03:39:56.619Z,10.2
2018-01-25T03:40:41.720Z,10.18
2018-01-25T03:41:41.990Z,10.18
2018-01-25T03:42:42.014Z,10.17
2018-01-25T03:43:42.039Z,10.29
2018-01-25T03:44:42.054Z,10.22
2018-01-25T03:45:41.810Z,10.23
2018-01-25T03:46:56.753Z,10.26
2018-01-25T03:47:42.103Z,10.34
2018-01-25T03:48:41.876Z,10.25
2018-01-25T03:49:42.141Z,10.38
2018-01-25T03:50:41.913Z,10.36
2018-01-25T03:51:41.937Z,10.34
2018-01-25T03:52:42.202Z,10.4
2018-01-25T03:53:42.224Z,10.32
2018-01-25T03:54:42.229Z,10.23
2018-01-25T03:55:42.405Z,10.25
2018-01-25T03:56:56.941Z,10.15
2018-01-25T03:57:42.033Z,10.23
2018-01-25T03:58:42.077Z,10.15
2018-01-25T04:00:42.099Z,10.15
2018-01-25T04:01:57.038Z,10.17
2018-01-25T04:02:42.407Z,10.22
2018-01-25T04:03:42.164Z,10.18
2018-01-25T04:04:57.102Z,10.05
2018-01-25T04:05:42.438Z,10.07
2018-01-25T04:06:42.459Z,10.09
2018-01-25T04:07:42.226Z,10.04
2018-01-25T04:08:57.174Z,10.07
2018-01-25T04:09:42.529Z,10.08
2018-01-25T04:10:42.296Z,10.08
2018-01-25T04:11:42.302Z,10.07
2018-01-25T04:12:42.328Z,10.09
2018-01-25T04:13:42.602Z,10.05
2018-01-25T04:14:42.366Z,10.09
2018-01-25T04:15:42.748Z,10.08
2018-01-25T04:17:42.687Z,9.91
2018-01-25T04:18:42.445Z,10.04
2018-01-25T04:19:42.696Z,9.99
2018-01-25T04:20:42.741Z,10.05
2018-01-25T04:21:42.750Z,10.04
2018-01-25T04:22:42.775Z,10.02
2018-01-25T04:23:57.470Z,10.08
2018-01-25T04:24:42.799Z,10.04
2018-01-25T04:26:57.511Z,10.08
2018-01-25T04:27:42.615Z,10.05
2018-01-25T04:28:42.615Z,10.07
2018-01-25T04:29:43.000Z,10.04
2018-01-25T04:30:42.923Z,10.02
2018-01-25T04:31:42.670Z,10.09
2018-01-25T04:32:42.820Z,10.14
2018-01-25T04:33:57.650Z,10.22
2018-01-25T04:34:42.986Z,10.17
2018-01-25T04:35:42.784Z,10.18
2018-01-25T04:36:43.039Z,10.17
2018-01-25T04:37:42.806Z,10.23
2018-01-25T04:38:43.089Z,10.2
2018-01-25T04:39:43.087Z,10.15
2018-01-25T04:40:43.117Z,10.22
2018-01-25T04:41:43.136Z,10.27
2018-01-25T04:42:42.886Z,10.27
2018-01-25T04:43:43.171Z,10.27
2018-01-25T04:44:42.945Z,10.38
2018-01-25T04:45:43.190Z,10.33
2018-01-25T04:46:43.247Z,10.44
2018-01-25T04:47:42.732Z,10.34
2018-01-25T04:48:43.252Z,10.38
2018-01-25T04:49:57.704Z,10.48
2018-01-25T04:50:43.297Z,10.41
2018-01-25T04:51:43.326Z,10.45
2018-01-25T04:52:43.077Z,10.45
2018-01-25T04:53:43.363Z,10.47
2018-01-25T04:54:43.392Z,10.42
2018-01-25T04:55:42.888Z,10.42
2018-01-25T04:56:43.432Z,10.48
2018-01-25T04:57:43.436Z,10.48
2018-01-25T04:58:43.203Z,10.51
2018-01-25T04:59:43.221Z,10.51
2018-01-25T05:00:43.225Z,10.48
2018-01-25T05:01:43.512Z,10.6
2018-01-25T05:03:43.571Z,10.59
2018-01-25T05:04:43.332Z,10.63
2018-01-25T05:05:58.358Z,10.61
2018-01-25T05:06:43.610Z,10.64
2018-01-25T05:07:43.612Z,10.66
2018-01-25T05:08:43.395Z,10.64
2018-01-25T05:09:43.768Z,10.61
2018-01-25T05:10:43.692Z,10.68
2018-01-25T05:11:43.688Z,10.66
2018-01-25T05:12:43.725Z,10.66
2018-01-25T05:13:43.736Z,10.71
2018-01-25T05:14:43.499Z,10.63
2018-01-25T05:15:43.798Z,10.63
2018-01-25T05:16:43.790Z,10.7
2018-01-25T05:17:43.805Z,10.7
2018-01-25T05:18:43.583Z,10.66
2018-01-25T05:19:43.867Z,10.79
2018-01-25T05:20:43.878Z,10.76
2018-01-25T05:21:58.562Z,10.78
2018-01-25T05:22:43.910Z,10.74
2018-01-25T05:24:43.960Z,10.66
2018-01-25T05:25:43.970Z,10.7
2018-01-25T05:26:43.987Z,10.68
2018-01-25T05:28:44.006Z,10.71
2018-01-25T05:29:44.253Z,10.68
2018-01-25T05:30:43.809Z,10.7
2018-01-25T05:31:43.833Z,10.64
2018-01-25T05:32:44.103Z,10.73
2018-01-25T05:33:44.103Z,10.7
2018-01-25T05:34:43.893Z,10.7
2018-01-25T05:35:44.155Z,10.73
2018-01-25T05:36:58.858Z,10.68
2018-01-25T05:37:44.197Z,10.68
2018-01-25T05:38:44.233Z,10.74
2018-01-25T05:39:44.238Z,10.74
2018-01-25T05:40:44.265Z,10.79
2018-01-25T05:41:44.281Z,10.82
2018-01-25T05:42:44.301Z,10.79
2018-01-25T05:43:44.316Z,10.7
2018-01-25T05:44:44.334Z,10.79
2018-01-25T05:45:44.343Z,10.71
2018-01-25T05:46:44.356Z,10.74
2018-01-25T05:47:59.072Z,10.86
2018-01-25T05:48:59.179Z,10.7
2018-01-25T05:49:59.114Z,10.86
2018-01-25T05:50:44.457Z,10.94
2018-01-25T05:51:44.465Z,10.89
2018-01-25T05:52:44.496Z,10.82
2018-01-25T05:53:44.505Z,10.86
2018-01-25T05:56:44.567Z,11
2018-01-25T05:57:44.585Z,10.96
2018-01-25T05:58:44.618Z,10.86
2018-01-25T05:59:44.627Z,10.84
2018-01-25T06:00:44.750Z,10.91
2018-01-25T06:01:59.322Z,10.88
2018-01-25T06:02:44.431Z,10.85
2018-01-25T06:03:44.689Z,10.88
2018-01-25T06:04:44.467Z,10.88
2018-01-25T06:05:44.490Z,10.92
2018-01-25T06:06:59.441Z,10.91
2018-01-25T06:07:44.782Z,10.88
2018-01-25T06:08:59.487Z,10.97
2018-01-25T06:09:44.828Z,10.89
2018-01-25T06:10:44.829Z,10.89
2018-01-25T06:11:44.597Z,10.94
2018-01-25T06:12:44.915Z,11
2018-01-25T06:13:44.894Z,10.85
2018-01-25T06:14:59.579Z,10.82
2018-01-25T06:15:44.934Z,10.86
2018-01-25T06:16:44.950Z,10.89
2018-01-25T06:17:45.061Z,10.86
2018-01-25T06:18:45.012Z,10.84
2018-01-25T06:19:45.006Z,10.88
2018-01-25T06:20:45.029Z,10.88
2018-01-25T06:21:45.053Z,10.91
2018-01-25T06:22:45.065Z,10.97
2018-01-25T06:23:45.190Z,10.91
2018-01-25T06:24:59.776Z,10.97
2018-01-25T06:25:45.123Z,10.91
2018-01-25T06:27:45.156Z,10.92
2018-01-25T06:28:45.272Z,10.91
2018-01-25T06:29:45.180Z,10.92
2018-01-25T06:30:59.908Z,10.89
2018-01-25T06:31:44.994Z,10.99
2018-01-25T06:32:59.920Z,10.94
2018-01-25T06:33:59.947Z,11
2018-01-25T06:34:45.307Z,10.92
2018-01-25T06:35:45.062Z,10.94
2018-01-25T06:36:45.074Z,10.91
2018-01-25T06:38:45.118Z,10.86
2018-01-25T06:39:45.406Z,10.88
2018-01-25T06:40:59.826Z,10.91
2018-01-25T06:41:45.434Z,10.94
2018-01-25T06:42:45.430Z,10.92
2018-01-25T06:44:45.594Z,10.97
2018-01-25T06:45:45.263Z,11.03
2018-01-25T06:46:45.526Z,10.99
2018-01-25T06:47:45.277Z,10.96
2018-01-25T06:48:45.573Z,10.96
2018-01-25T06:49:45.599Z,11.04
2018-01-25T06:50:45.612Z,11.07
2018-01-25T06:51:45.623Z,10.94
2018-01-25T06:53:00.401Z,10.97
2018-01-25T06:53:45.667Z,10.92
2018-01-25T06:54:45.681Z,10.99
2018-01-25T06:55:45.443Z,11.02
2018-01-25T06:57:00.399Z,10.99
2018-01-25T06:57:45.737Z,10.96
2018-01-25T06:58:45.526Z,11.04
2018-01-25T06:59:45.788Z,11.02
2018-01-25T07:00:45.804Z,10.99
2018-01-25T07:01:45.824Z,11
2018-01-25T07:02:45.593Z,10.99
2018-01-25T07:03:45.863Z,10.88
2018-01-25T07:04:45.622Z,10.96
2018-01-25T07:06:45.921Z,11.02
2018-01-25T07:07:45.947Z,11.04
2018-01-25T07:08:45.704Z,11
2018-01-25T07:09:45.965Z,11.06
2018-01-25T07:10:45.999Z,11.09
2018-01-25T07:12:00.675Z,11.06
2018-01-25T07:12:46.038Z,11.09
2018-01-25T07:13:46.053Z,10.97
2018-01-25T07:14:46.169Z,11.07
2018-01-25T07:15:45.835Z,10.99
2018-01-25T07:16:46.109Z,10.99
2018-01-25T07:17:46.110Z,10.97
2018-01-25T07:18:46.144Z,10.96
2018-01-25T07:19:46.273Z,10.92
2018-01-25T07:20:45.928Z,10.94
2018-01-25T07:21:46.239Z,10.92
2018-01-25T07:22:46.232Z,10.89
2018-01-25T07:24:46.255Z,11.02
2018-01-25T07:25:46.292Z,10.92
2018-01-25T07:26:46.300Z,10.89
2018-01-25T07:27:46.334Z,10.97
2018-01-25T07:28:46.343Z,10.99
2018-01-25T07:29:46.109Z,10.99
2018-01-25T07:30:46.397Z,11.03
2018-01-25T07:31:46.399Z,11.06
2018-01-25T07:32:46.421Z,11.06
2018-01-25T07:34:46.207Z,11.04
2018-01-25T07:35:46.476Z,11.03
2018-01-25T07:36:46.258Z,10.97
2018-01-25T07:37:46.516Z,10.92
2018-01-25T07:38:46.607Z,11
2018-01-25T07:40:01.227Z,11
2018-01-25T07:40:46.332Z,10.99
2018-01-25T07:41:46.348Z,10.94
2018-01-25T07:42:46.628Z,11.06
2018-01-25T07:44:01.302Z,11.09
2018-01-25T07:44:46.652Z,11.06
2018-01-25T07:45:46.409Z,10.96
2018-01-25T07:46:46.191Z,10.89
2018-01-25T07:47:46.711Z,10.96
2018-01-25T07:48:46.602Z,11.06
2018-01-25T07:49:46.753Z,10.96
2018-01-25T07:50:46.771Z,11
2018-01-25T07:51:46.805Z,10.94
2018-01-25T07:52:46.565Z,11.02
2018-01-25T07:53:46.834Z,11.07
2018-01-25T07:56:01.545Z,10.94
2018-01-25T07:56:46.914Z,11
2018-01-25T07:57:46.900Z,11.06
2018-01-25T07:58:46.929Z,11.02
2018-01-25T08:00:01.624Z,11.06
2018-01-25T08:00:46.716Z,10.97
2018-01-25T08:01:46.999Z,11.07
2018-01-25T08:02:47.016Z,11.06
2018-01-25T08:04:01.450Z,10.99
2018-01-25T08:04:46.787Z,11.06
2018-01-25T08:06:47.084Z,11.17
2018-01-25T08:07:47.082Z,11.15
2018-01-25T08:08:47.138Z,11.11
2018-01-25T08:10:01.821Z,11.17
2018-01-25T08:10:47.173Z,11.15
2018-01-25T08:11:46.920Z,11.19
2018-01-25T08:12:47.209Z,11.22
2018-01-25T08:13:47.227Z,11.28
2018-01-25T08:14:46.736Z,11.29
2018-01-25T08:17:02.048Z,11.28
2018-01-25T08:18:01.978Z,11.32
2018-01-25T08:18:47.313Z,11.24
2018-01-25T08:19:47.088Z,11.22
2018-01-25T08:20:47.096Z,11.32
2018-01-25T08:21:47.388Z,11.25
2018-01-25T08:22:47.385Z,11.27
2018-01-25T08:23:47.177Z,11.24
2018-01-25T08:25:02.117Z,11.24
2018-01-25T08:25:47.466Z,11.27
2018-01-25T08:26:47.490Z,11.24
2018-01-25T08:28:01.916Z,11.25
2018-01-25T08:28:47.264Z,11.29
2018-01-25T08:29:47.290Z,11.24
2018-01-25T08:30:47.574Z,11.19
2018-01-25T08:32:02.259Z,11.09
2018-01-25T08:32:47.346Z,11.14
2018-01-25T08:33:47.618Z,11.09
2018-01-25T08:34:47.646Z,11.19
2018-01-25T08:35:47.759Z,11.15
2018-01-25T08:37:47.701Z,11.09
2018-01-25T08:38:47.466Z,11.09
2018-01-25T08:40:02.397Z,11.1
2018-01-25T08:40:47.762Z,10.96
2018-01-25T08:41:47.782Z,11.06
2018-01-25T08:42:47.802Z,11.04
2018-01-25T08:43:47.832Z,11.07
2018-01-25T08:44:47.820Z,11.07
2018-01-25T08:45:47.858Z,11.14
2018-01-25T08:47:02.540Z,11.09
2018-01-25T08:47:47.895Z,11.03
2018-01-25T08:48:47.897Z,11.09
2018-01-25T08:49:47.931Z,11.14
2018-01-25T08:50:47.948Z,11.19
2018-01-25T08:51:47.718Z,11.19
2018-01-25T08:52:47.997Z,11.17
2018-01-25T08:53:48.001Z,11.14
2018-01-25T08:55:47.795Z,11.11
2018-01-25T08:56:48.069Z,11.17
2018-01-25T08:57:48.108Z,11.28
2018-01-25T08:58:47.853Z,11.17
2018-01-25T08:59:48.136Z,11.18
2018-01-25T09:00:47.902Z,11.14
2018-01-25T09:01:48.162Z,11.11
2018-01-25T09:02:48.181Z,11.15
2018-01-25T09:03:48.212Z,11.09
2018-01-25T09:04:48.278Z,11.06
2018-01-25T09:05:48.246Z,11.06
2018-01-25T09:06:48.270Z,11.07
2018-01-25T09:07:48.286Z,11.03
2018-01-25T09:08:48.047Z,10.99
2018-01-25T09:09:48.090Z,11.06
2018-01-25T09:11:48.129Z,10.92
2018-01-25T09:12:48.118Z,10.94
2018-01-25T09:13:48.393Z,10.94
2018-01-25T09:15:48.198Z,10.86
2018-01-25T09:16:48.494Z,10.99
2018-01-25T09:17:48.486Z,10.91
2018-01-25T09:19:02.924Z,10.91
2018-01-25T09:19:48.269Z,10.91
2018-01-25T09:20:48.556Z,10.89
2018-01-25T09:21:48.542Z,10.94
2018-01-25T09:23:48.582Z,10.96
2018-01-25T09:24:48.635Z,10.92
2018-01-25T09:25:48.649Z,10.91
2018-01-25T09:26:48.665Z,10.92
2018-01-25T09:27:48.681Z,10.91
2018-01-25T09:28:48.434Z,10.97
2018-01-25T09:29:48.706Z,10.94
2018-01-25T09:30:48.740Z,10.91
2018-01-25T09:31:48.855Z,10.97
2018-01-25T09:32:48.786Z,10.92
2018-01-25T09:33:48.793Z,10.94
2018-01-25T09:35:03.486Z,10.91
2018-01-25T09:35:48.838Z,10.91
2018-01-25T09:37:03.553Z,10.99
2018-01-25T09:37:48.637Z,10.91
2018-01-25T09:38:48.880Z,10.89
2018-01-25T09:39:48.925Z,11
2018-01-25T09:40:48.672Z,10.94
2018-01-25T09:41:48.701Z,11.06
2018-01-25T09:42:48.973Z,11.04
2018-01-25T09:43:48.736Z,10.97
2018-01-25T09:44:49.017Z,11.06
2018-01-25T09:45:49.034Z,11.02
2018-01-25T09:46:48.795Z,11.06
2018-01-25T09:48:03.492Z,11.09
2018-01-25T09:48:48.582Z,11.07
2018-01-25T09:49:49.114Z,11.07
2018-01-25T09:51:49.145Z,11.18
2018-01-25T09:53:48.938Z,11.24
2018-01-25T09:54:49.200Z,11.27
2018-01-25T09:55:49.229Z,11.25
2018-01-25T09:56:49.002Z,11.25
2018-01-25T09:57:49.320Z,11.29
2018-01-25T09:58:49.300Z,11.32
2018-01-25T09:59:49.086Z,11.42
2018-01-25T10:00:48.917Z,11.24
2018-01-25T10:01:49.367Z,11.36
2018-01-25T10:03:03.789Z,11.24
2018-01-25T10:03:48.875Z,11.22
2018-01-25T10:05:04.071Z,11.24
2018-01-25T10:05:49.427Z,11.37
2018-01-25T10:07:04.125Z,11.29
2018-01-25T10:07:49.209Z,11.22
2018-01-25T10:08:49.489Z,11.4
2018-01-25T10:09:49.260Z,11.36
2018-01-25T10:10:49.275Z,11.37
2018-01-25T10:11:49.546Z,11.36
2018-01-25T10:12:49.573Z,11.43
2018-01-25T10:13:49.347Z,11.4
2018-01-25T10:14:49.595Z,11.44
2018-01-25T10:15:49.628Z,11.33
2018-01-25T10:17:04.314Z,11.43
2018-01-25T10:17:49.680Z,11.4
2018-01-25T10:18:49.441Z,11.46
2018-01-25T10:19:49.738Z,11.39
2018-01-25T10:20:49.746Z,11.37
2018-01-25T10:22:04.425Z,11.39
2018-01-25T10:22:49.775Z,11.33
2018-01-25T10:23:49.776Z,11.35
2018-01-25T10:24:49.559Z,11.43
2018-01-25T10:25:49.573Z,11.36
2018-01-25T10:26:49.863Z,11.44
2018-01-25T10:27:49.960Z,11.42
2018-01-25T10:28:49.887Z,11.49
2018-01-25T10:29:49.899Z,11.49
2018-01-25T10:30:49.932Z,11.44
2018-01-25T10:31:49.695Z,11.4
2018-01-25T10:32:49.775Z,11.49
2018-01-25T10:33:49.985Z,11.43
2018-01-25T10:34:49.747Z,11.51
2018-01-25T10:36:50.063Z,11.43
2018-01-25T10:37:50.075Z,11.42
2018-01-25T10:38:50.091Z,11.44
2018-01-25T10:39:50.118Z,11.49
2018-01-25T10:40:49.880Z,11.43
2018-01-25T10:41:49.900Z,11.51
2018-01-25T10:42:50.157Z,11.57
2018-01-25T10:43:49.927Z,11.6
2018-01-25T10:44:49.984Z,11.6
2018-01-25T10:45:50.243Z,11.67
2018-01-25T10:46:50.014Z,11.62
2018-01-25T10:47:50.263Z,11.64
2018-01-25T10:48:50.286Z,11.7
2018-01-25T10:49:50.370Z,11.67
2018-01-25T10:50:50.341Z,11.58
2018-01-25T10:51:50.086Z,11.55
2018-01-25T10:52:50.354Z,11.69
2018-01-25T10:54:50.398Z,11.54
2018-01-25T10:55:50.431Z,11.55
2018-01-25T10:56:50.452Z,11.43
2018-01-25T10:57:50.214Z,11.46
2018-01-25T10:59:50.250Z,11.43
2018-01-25T11:00:50.534Z,11.49
2018-01-25T11:01:50.295Z,11.49
2018-01-25T11:02:50.325Z,11.43
2018-01-25T11:03:50.574Z,11.4
2018-01-25T11:04:50.616Z,11.47
2018-01-25T11:05:50.688Z,11.39
2018-01-25T11:06:50.646Z,11.44
2018-01-25T11:07:50.702Z,11.47
2018-01-25T11:08:50.802Z,11.49
2018-01-25T11:10:05.387Z,11.54
2018-01-25T11:10:50.741Z,11.58
2018-01-25T11:11:50.489Z,11.6
2018-01-25T11:12:50.782Z,11.52
2018-01-25T11:13:50.542Z,11.69
2018-01-25T11:14:50.793Z,11.69
2018-01-25T11:15:50.847Z,11.72
2018-01-25T11:16:50.613Z,11.69
2018-01-25T11:19:05.321Z,11.79
2018-01-25T11:19:51.021Z,11.76
2018-01-25T11:20:50.928Z,11.72
2018-01-25T11:22:50.983Z,11.65
2018-01-25T11:23:50.990Z,11.76
2018-01-25T11:24:51.022Z,11.67
2018-01-25T11:26:05.693Z,11.67
2018-01-25T11:26:50.813Z,11.64
2018-01-25T11:28:05.749Z,11.62
2018-01-25T11:28:50.843Z,11.62
2018-01-25T11:29:51.133Z,11.69
2018-01-25T11:30:50.876Z,11.6
2018-01-25T11:31:51.166Z,11.7
2018-01-25T11:32:51.016Z,11.62
2018-01-25T11:33:51.199Z,11.52
2018-01-25T11:34:50.952Z,11.58
2018-01-25T11:35:51.236Z,11.7
2018-01-25T11:36:51.240Z,11.58
2018-01-25T11:38:51.049Z,11.57
2018-01-25T11:39:50.814Z,11.58
2018-01-25T11:40:51.348Z,11.69
2018-01-25T11:42:05.772Z,11.65
2018-01-25T11:42:51.116Z,11.69
2018-01-25T11:43:51.401Z,11.65
2018-01-25T11:44:51.402Z,11.61
2018-01-25T11:45:51.182Z,11.72
2018-01-25T11:46:51.459Z,11.72
2018-01-25T11:47:51.689Z,11.78
2018-01-25T11:48:51.499Z,11.72
2018-01-25T11:50:05.935Z,11.79
2018-01-25T11:50:51.544Z,11.7
2018-01-25T11:52:06.221Z,11.73
2018-01-25T11:52:51.349Z,11.65
2018-01-25T11:53:51.696Z,11.62
2018-01-25T11:54:51.616Z,11.7
2018-01-25T11:55:51.646Z,11.64
2018-01-25T11:57:06.328Z,11.51
2018-01-25T11:57:51.781Z,11.54
2018-01-25T11:58:51.858Z,11.58
2018-01-25T11:59:51.721Z,11.6
2018-01-25T12:00:51.744Z,11.64
2018-01-25T12:01:51.526Z,11.61
2018-01-25T12:02:51.783Z,11.62
2018-01-25T12:03:51.809Z,11.6
2018-01-25T12:04:51.842Z,11.61
2018-01-25T12:05:51.598Z,11.67
2018-01-25T12:06:51.871Z,11.67
2018-01-25T12:07:51.633Z,11.65
2018-01-25T12:09:51.680Z,11.69
2018-01-25T12:10:51.699Z,11.73
2018-01-25T12:11:51.717Z,11.72
2018-01-25T12:13:06.405Z,11.75
2018-01-25T12:13:51.760Z,11.69
2018-01-25T12:14:52.038Z,11.69
2018-01-25T12:16:06.722Z,11.73
2018-01-25T12:16:52.071Z,11.65
2018-01-25T12:17:52.086Z,11.65
2018-01-25T12:18:51.864Z,11.58
2018-01-25T12:19:51.883Z,11.65
2018-01-25T12:20:52.148Z,11.57
2018-01-25T12:21:52.224Z,11.64
2018-01-25T12:22:51.678Z,11.69
2018-01-25T12:23:51.958Z,11.69
2018-01-25T12:24:52.241Z,11.58
2018-01-25T12:25:52.006Z,11.65
2018-01-25T12:26:52.019Z,11.61
2018-01-25T12:27:52.301Z,11.57
2018-01-25T12:29:06.981Z,11.64
2018-01-25T12:29:52.318Z,11.67
2018-01-25T12:30:52.092Z,11.57
2018-01-25T12:32:52.135Z,11.67
2018-01-25T12:33:52.427Z,11.64
2018-01-25T12:34:52.176Z,11.67
2018-01-25T12:35:52.204Z,11.69
2018-01-25T12:36:52.466Z,11.61
2018-01-25T12:37:52.485Z,11.6
2018-01-25T12:38:52.513Z,11.61
2018-01-25T12:39:52.385Z,11.7
2018-01-25T12:40:52.567Z,11.52
2018-01-25T12:41:52.576Z,11.51
2018-01-25T12:42:52.339Z,11.52
2018-01-25T12:43:52.653Z,11.57
2018-01-25T12:45:07.323Z,11.62
2018-01-25T12:45:52.650Z,11.61
2018-01-25T12:46:52.671Z,11.62
2018-01-25T12:47:52.697Z,11.61
2018-01-25T12:48:52.716Z,11.54
2018-01-25T12:49:52.736Z,11.6
2018-01-25T12:50:52.740Z,11.57
2018-01-25T12:51:52.514Z,11.58
2018-01-25T12:52:52.792Z,11.6
2018-01-25T12:53:52.817Z,11.6
2018-01-25T12:54:52.325Z,11.58
2018-01-25T12:55:52.844Z,11.55
2018-01-25T12:56:52.690Z,11.58
2018-01-25T12:57:52.875Z,11.55
2018-01-25T12:58:52.670Z,11.72
2018-01-25T12:59:52.925Z,11.72
2018-01-25T13:01:07.631Z,11.62
2018-01-25T13:01:52.729Z,11.7
2018-01-25T13:02:52.986Z,11.51
2018-01-25T13:03:52.772Z,11.58
2018-01-25T13:04:52.784Z,11.51
2018-01-25T13:05:53.052Z,11.49
2018-01-25T13:06:52.831Z,11.46
2018-01-25T13:08:53.121Z,11.35
2018-01-25T13:09:52.896Z,11.35
2018-01-25T13:12:53.198Z,11.43
2018-01-25T13:13:52.970Z,11.36
2018-01-25T13:14:53.317Z,11.35
2018-01-25T13:15:53.253Z,11.35
2018-01-25T13:17:07.985Z,11.36
2018-01-25T13:17:53.050Z,11.35
2018-01-25T13:19:07.762Z,11.43
2018-01-25T13:19:53.084Z,11.4
2018-01-25T13:20:53.114Z,11.29
2018-01-25T13:22:53.395Z,11.39
2018-01-25T13:23:53.422Z,11.39
2018-01-25T13:24:53.540Z,11.49
2018-01-25T13:25:52.956Z,11.4
2018-01-25T13:26:53.483Z,11.46
2018-01-25T13:27:53.263Z,11.4
2018-01-25T13:28:53.254Z,11.46
2018-01-25T13:29:53.536Z,11.39
2018-01-25T13:30:53.556Z,11.46
2018-01-25T13:32:08.003Z,11.47
2018-01-25T13:32:53.608Z,11.52
2018-01-25T13:33:53.648Z,11.54
2018-01-25T13:35:08.312Z,11.43
2018-01-25T13:35:53.661Z,11.44
2018-01-25T13:36:53.433Z,11.43
2018-01-25T13:37:53.445Z,11.47
2018-01-25T13:38:53.461Z,11.46
2018-01-25T13:39:53.241Z,11.49
2018-01-25T13:40:53.515Z,11.39
2018-01-25T13:41:53.531Z,11.39
2018-01-25T13:42:53.807Z,11.46
2018-01-25T13:43:53.824Z,11.42
2018-01-25T13:45:08.518Z,11.43
2018-01-25T13:45:53.602Z,11.44
2018-01-25T13:46:53.630Z,11.46
2018-01-25T13:47:53.896Z,11.52
2018-01-25T13:49:08.598Z,11.47